createdAt,value
2023-03-02T00:00:35.878Z,1.60
2023-03-02T00:01:41.659Z,1.60
2023-03-02T00:02:44.964Z,1.50
2023-03-02T00:03:46.518Z,1.50
2023-03-02T00:04:56.943Z,1.40
2023-03-02T00:05:59.428Z,1.50
2023-03-02T00:07:08.023Z,1.50
2023-03-02T00:08:10.117Z,1.40
2023-03-02T00:09:11.683Z,1.40
2023-03-02T00:10:13.399Z,1.40
2023-03-02T00:11:15.577Z,1.40
2023-03-02T00:12:17.302Z,1.40
2023-03-02T00:13:19.107Z,1.40
2023-03-02T00:14:20.680Z,1.30
2023-03-02T00:15:22.488Z,1.30
2023-03-02T00:16:24.189Z,1.30
2023-03-02T00:17:28.796Z,1.30
2023-03-02T00:18:30.464Z,1.30
2023-03-02T00:19:32.816Z,1.30
2023-03-02T00:20:35.869Z,1.30
2023-03-02T00:21:37.455Z,1.20
2023-03-02T00:22:41.291Z,1.20
2023-03-02T00:23:42.803Z,1.20
2023-03-02T00:24:44.315Z,1.10
2023-03-02T00:25:45.875Z,1.10
2023-03-02T00:26:47.294Z,1.10
2023-03-02T00:27:49.068Z,1.20
2023-03-02T00:28:50.580Z,1.20
2023-03-02T00:29:51.993Z,1.20
2023-03-02T00:30:53.482Z,1.10
2023-03-02T00:31:55.260Z,1.10
2023-03-02T00:32:58.454Z,1.00
2023-03-02T00:34:00.441Z,1.00
2023-03-02T00:35:02.334Z,1.00
2023-03-02T00:36:04.371Z,0.90
2023-03-02T00:37:05.884Z,0.90
2023-03-02T00:38:08.237Z,0.90
2023-03-02T00:39:09.758Z,0.80
2023-03-02T00:40:11.929Z,0.90
2023-03-02T00:41:15.565Z,0.90
2023-03-02T00:42:17.073Z,0.80
2023-03-02T00:43:18.637Z,0.90
2023-03-02T00:44:20.063Z,0.80
2023-03-02T00:45:21.920Z,0.90
2023-03-02T00:46:24.934Z,0.80
2023-03-02T00:47:26.415Z,0.80
2023-03-02T00:48:28.014Z,0.70
2023-03-02T00:49:29.704Z,0.70
2023-03-02T00:50:31.766Z,0.70
2023-03-02T00:51:33.445Z,0.80
2023-03-02T00:52:34.931Z,0.70
2023-03-02T00:53:37.338Z,0.80
2023-03-02T00:54:38.880Z,0.80
2023-03-02T00:55:40.527Z,0.70
2023-03-02T00:56:42.689Z,0.70
2023-03-02T00:57:44.572Z,0.70
2023-03-02T00:58:46.138Z,0.70
2023-03-02T00:59:48.008Z,0.70
2023-03-02T01:00:59.018Z,0.60
2023-03-02T01:02:02.171Z,0.60
2023-03-02T01:03:05.920Z,0.60
2023-03-02T01:04:07.575Z,0.60
2023-03-02T01:05:09.423Z,0.60
2023-03-02T01:06:16.634Z,0.60
2023-03-02T01:07:21.348Z,0.60
2023-03-02T01:08:23.465Z,0.50
2023-03-02T01:09:25.024Z,0.50
2023-03-02T01:10:26.735Z,0.40
2023-03-02T01:11:28.288Z,0.40
2023-03-02T01:12:31.321Z,0.50
2023-03-02T01:13:32.786Z,0.50
2023-03-02T01:14:35.694Z,0.50
2023-03-02T01:15:37.176Z,0.50
2023-03-02T01:16:38.877Z,0.50
2023-03-02T01:17:41.443Z,0.50
2023-03-02T01:18:42.982Z,0.50
2023-03-02T01:19:44.837Z,0.60
2023-03-02T01:20:46.253Z,0.60
2023-03-02T01:21:47.879Z,0.50
2023-03-02T01:22:49.295Z,0.50
2023-03-02T01:23:51.824Z,0.50
2023-03-02T01:24:53.384Z,0.50
2023-03-02T01:25:55.246Z,0.50
2023-03-02T01:26:56.751Z,0.50
2023-03-02T01:27:58.366Z,0.50
2023-03-02T01:29:00.134Z,0.40
2023-03-02T01:30:01.604Z,0.50
2023-03-02T01:31:05.381Z,0.40
2023-03-02T01:32:07.331Z,0.40
2023-03-02T01:33:08.970Z,0.40
2023-03-02T01:34:10.374Z,0.40
2023-03-02T01:35:12.803Z,0.40
2023-03-02T01:36:14.820Z,0.40
2023-03-02T01:37:16.368Z,0.30
2023-03-02T01:38:18.014Z,0.30
2023-03-02T01:39:22.746Z,0.30
2023-03-02T01:40:24.328Z,0.30
2023-03-02T01:41:26.103Z,0.20
2023-03-02T01:42:27.849Z,0.20
2023-03-02T01:43:29.525Z,0.30
2023-03-02T01:44:36.603Z,0.30
2023-03-02T01:45:57.318Z,0.20
2023-03-02T01:47:18.706Z,0.20
2023-03-02T01:48:35.849Z,0.20
2023-03-02T01:49:37.929Z,0.20
2023-03-02T01:50:41.801Z,0.10
2023-03-02T01:51:47.060Z,0.10
2023-03-02T01:52:50.110Z,0.10
2023-03-02T01:53:55.639Z,0.10
2023-03-02T01:55:00.422Z,0.10
2023-03-02T01:56:03.770Z,0.10
2023-03-02T01:57:06.497Z,0.10
2023-03-02T01:58:08.665Z,0.10
2023-03-02T01:59:16.611Z,0.10
2023-03-02T02:00:24.237Z,0.10
2023-03-02T02:01:27.113Z,0.10
2023-03-02T02:02:29.144Z,0.00
2023-03-02T02:03:31.122Z,0.10
2023-03-02T02:04:35.475Z,0.00
2023-03-02T02:05:39.894Z,0.00
2023-03-02T02:06:47.911Z,0.00
2023-03-02T02:07:49.621Z,-0.10
2023-03-02T02:08:54.363Z,-0.10
2023-03-02T02:09:56.752Z,0.00
2023-03-02T02:10:58.967Z,0.00
2023-03-02T02:12:01.028Z,-0.10
2023-03-02T02:13:03.011Z,-0.10
2023-03-02T02:14:04.865Z,-0.10
2023-03-02T02:15:07.345Z,-0.10
2023-03-02T02:16:09.640Z,-0.20
2023-03-02T02:17:12.598Z,-0.20
2023-03-02T02:18:14.204Z,-0.10
2023-03-02T02:19:45.985Z,-0.10
2023-03-02T02:20:49.130Z,-0.10
2023-03-02T02:21:51.231Z,-0.20
2023-03-02T02:23:05.790Z,-0.20
2023-03-02T02:24:16.446Z,-0.20
2023-03-02T02:25:33.706Z,-0.30
2023-03-02T02:26:47.945Z,-0.20
2023-03-02T02:27:49.906Z,-0.20
2023-03-02T02:28:57.608Z,-0.20
2023-03-02T02:30:03.776Z,-0.20
2023-03-02T02:31:13.124Z,-0.20
2023-03-02T02:32:28.604Z,-0.20
2023-03-02T02:33:32.284Z,-0.20
2023-03-02T02:34:46.423Z,-0.30
2023-03-02T02:35:49.164Z,-0.20
2023-03-02T02:36:55.674Z,-0.10
2023-03-02T02:38:06.941Z,-0.10
2023-03-02T02:39:20.585Z,-0.20
2023-03-02T02:40:48.403Z,-0.20
2023-03-02T02:41:55.234Z,-0.20
2023-03-02T02:42:56.938Z,-0.20
2023-03-02T02:43:58.732Z,-0.20
2023-03-02T02:45:06.237Z,-0.30
2023-03-02T02:46:09.271Z,-0.30
2023-03-02T02:47:21.896Z,-0.30
2023-03-02T02:48:26.932Z,-0.30
2023-03-02T02:49:35.192Z,-0.30
2023-03-02T02:50:38.129Z,-0.30
2023-03-02T02:51:41.047Z,-0.30
2023-03-02T02:52:43.204Z,-0.30
2023-03-02T02:53:59.182Z,-0.30
2023-03-02T02:55:03.856Z,-0.30
2023-03-02T02:56:08.054Z,-0.30
2023-03-02T02:57:11.337Z,-0.20
2023-03-02T02:58:52.453Z,-0.20
2023-03-02T02:59:58.045Z,-0.20
2023-03-02T03:01:01.661Z,-0.20
2023-03-02T03:02:03.549Z,-0.30
2023-03-02T03:03:29.446Z,-0.30
2023-03-02T03:04:33.216Z,-0.30
2023-03-02T03:05:34.766Z,-0.20
2023-03-02T03:06:42.245Z,-0.20
2023-03-02T03:07:46.474Z,-0.30
2023-03-02T03:08:54.204Z,-0.30
2023-03-02T03:10:30.888Z,-0.30
2023-03-02T03:11:35.369Z,-0.30
2023-03-02T03:12:40.087Z,-0.40
2023-03-02T03:13:43.641Z,-0.40
2023-03-02T03:14:45.825Z,-0.40
2023-03-02T03:15:48.056Z,-0.40
2023-03-02T03:16:50.805Z,-0.30
2023-03-02T03:17:56.938Z,-0.40
2023-03-02T03:19:06.080Z,-0.40
2023-03-02T03:20:09.350Z,-0.40
2023-03-02T03:21:14.860Z,-0.40
2023-03-02T03:22:17.165Z,-0.40
2023-03-02T03:23:21.168Z,-0.40
2023-03-02T03:24:24.683Z,-0.50
2023-03-02T03:25:27.653Z,-0.40
2023-03-02T03:26:30.583Z,-0.30
2023-03-02T03:27:32.401Z,-0.20
2023-03-02T03:28:35.798Z,-0.20
2023-03-02T03:29:40.654Z,-0.30
2023-03-02T03:30:44.626Z,-0.30
2023-03-02T03:31:46.310Z,-0.30
2023-03-02T03:32:48.611Z,-0.40
2023-03-02T03:33:51.029Z,-0.30
2023-03-02T03:34:52.593Z,-0.30
2023-03-02T03:36:00.743Z,-0.20
2023-03-02T03:37:02.367Z,-0.20
2023-03-02T03:38:08.383Z,-0.20
2023-03-02T03:39:11.759Z,-0.30
2023-03-02T03:40:13.929Z,-0.30
2023-03-02T03:41:18.351Z,-0.30
2023-03-02T03:42:20.203Z,-0.40
2023-03-02T03:43:22.485Z,-0.40
2023-03-02T03:44:28.668Z,-0.40
2023-03-02T03:45:30.925Z,-0.30
2023-03-02T03:46:33.365Z,-0.30
2023-03-02T03:47:36.127Z,-0.30
2023-03-02T03:48:39.440Z,-0.40
2023-03-02T03:49:41.060Z,-0.30
2023-03-02T03:50:42.944Z,-0.20
2023-03-02T03:51:44.870Z,-0.20
2023-03-02T03:52:46.642Z,-0.20
2023-03-02T03:54:02.659Z,-0.20
2023-03-02T03:55:10.450Z,-0.20
2023-03-02T03:56:12.607Z,-0.20
2023-03-02T03:57:14.145Z,-0.20
2023-03-02T03:58:15.663Z,-0.30
2023-03-02T03:59:20.584Z,-0.30
2023-03-02T04:00:26.507Z,-0.20
2023-03-02T04:01:40.776Z,-0.20
2023-03-02T04:02:42.503Z,-0.20
2023-03-02T04:03:46.034Z,-0.30
2023-03-02T04:04:48.133Z,-0.30
2023-03-02T04:05:52.110Z,-0.40
2023-03-02T04:06:54.690Z,-0.40
2023-03-02T04:07:56.367Z,-0.30
2023-03-02T04:08:58.030Z,-0.30
2023-03-02T04:10:04.478Z,-0.30
2023-03-02T04:11:08.952Z,-0.30
2023-03-02T04:12:11.096Z,-0.30
2023-03-02T04:13:14.988Z,-0.40
2023-03-02T04:14:18.357Z,-0.40
2023-03-02T04:15:19.816Z,-0.40
2023-03-02T04:16:22.956Z,-0.40
2023-03-02T04:17:24.500Z,-0.40
2023-03-02T04:18:26.388Z,-0.40
2023-03-02T04:19:27.896Z,-0.40
2023-03-02T04:20:32.413Z,-0.40
2023-03-02T04:21:34.131Z,-0.40
2023-03-02T04:22:35.843Z,-0.50
2023-03-02T04:23:38.054Z,-0.50
2023-03-02T04:24:39.728Z,-0.50
2023-03-02T04:25:41.139Z,-0.40
2023-03-02T04:26:49.158Z,-0.30
2023-03-02T04:27:52.854Z,-0.30
2023-03-02T04:28:55.155Z,-0.30
2023-03-02T04:29:57.271Z,-0.40
2023-03-02T04:30:58.970Z,-0.40
2023-03-02T04:32:00.933Z,-0.40
2023-03-02T04:33:03.581Z,-0.40
2023-03-02T04:34:07.679Z,-0.40
2023-03-02T04:35:12.865Z,-0.40
2023-03-02T04:36:14.801Z,-0.40
2023-03-02T04:37:16.316Z,-0.50
2023-03-02T04:38:18.106Z,-0.40
2023-03-02T04:39:20.755Z,-0.40
2023-03-02T04:40:25.136Z,-0.40
2023-03-02T04:41:26.928Z,-0.40
2023-03-02T04:42:28.388Z,-0.40
2023-03-02T04:43:30.549Z,-0.40
2023-03-02T04:44:32.307Z,-0.40
2023-03-02T04:45:33.846Z,-0.40
2023-03-02T04:46:35.750Z,-0.40
2023-03-02T04:47:37.857Z,-0.50
2023-03-02T04:48:39.224Z,-0.50
2023-03-02T04:49:40.817Z,-0.50
2023-03-02T04:50:42.407Z,-0.50
2023-03-02T04:51:45.488Z,-0.60
2023-03-02T04:52:47.158Z,-0.60
2023-03-02T04:53:48.636Z,-0.60
2023-03-02T04:54:50.097Z,-0.60
2023-03-02T04:55:52.118Z,-0.50
2023-03-02T04:56:54.932Z,-0.50
2023-03-02T04:57:56.388Z,-0.50
2023-03-02T04:58:58.189Z,-0.40
2023-03-02T04:59:59.727Z,-0.40
2023-03-02T05:01:02.363Z,-0.50
2023-03-02T05:02:04.355Z,-0.50
2023-03-02T05:03:06.302Z,-0.50
2023-03-02T05:04:08.112Z,-0.50
2023-03-02T05:05:20.000Z,-0.50
2023-03-02T05:06:24.570Z,-0.40
2023-03-02T05:07:26.160Z,-0.40
2023-03-02T05:08:27.713Z,-0.50
2023-03-02T05:09:30.789Z,-0.50
2023-03-02T05:10:33.023Z,-0.50
2023-03-02T05:11:35.000Z,-0.50
2023-03-02T05:12:54.439Z,-0.50
2023-03-02T05:13:59.529Z,-0.50
2023-03-02T05:15:00.946Z,-0.50
2023-03-02T05:16:03.160Z,-0.50
2023-03-02T05:17:04.704Z,-0.50
2023-03-02T05:18:09.551Z,-0.50
2023-03-02T05:19:12.416Z,-0.50
2023-03-02T05:20:14.425Z,-0.40
2023-03-02T05:21:17.473Z,-0.50
2023-03-02T05:22:19.416Z,-0.50
2023-03-02T05:23:25.857Z,-0.50
2023-03-02T05:24:27.527Z,-0.50
2023-03-02T05:25:32.493Z,-0.50
2023-03-02T05:26:34.272Z,-0.50
2023-03-02T05:27:37.098Z,-0.50
2023-03-02T05:28:39.507Z,-0.50
2023-03-02T05:29:41.326Z,-0.60
2023-03-02T05:30:42.790Z,-0.60
2023-03-02T05:31:46.291Z,-0.60
2023-03-02T05:32:48.672Z,-0.60
2023-03-02T05:33:50.366Z,-0.60
2023-03-02T05:34:51.852Z,-0.50
2023-03-02T05:35:53.744Z,-0.40
2023-03-02T05:36:57.097Z,-0.40
2023-03-02T05:37:58.615Z,-0.40
2023-03-02T05:39:00.293Z,-0.40
2023-03-02T05:40:01.941Z,-0.50
2023-03-02T05:41:04.049Z,-0.40
2023-03-02T05:42:05.997Z,-0.40
2023-03-02T05:43:08.492Z,-0.40
2023-03-02T05:44:12.127Z,-0.50
2023-03-02T05:45:30.604Z,-0.50
2023-03-02T05:46:32.530Z,-0.40
2023-03-02T05:47:34.323Z,-0.50
2023-03-02T05:48:35.792Z,-0.50
2023-03-02T05:49:37.331Z,-0.50
2023-03-02T05:50:38.936Z,-0.50
2023-03-02T05:51:40.448Z,-0.50
2023-03-02T05:52:42.317Z,-0.40
2023-03-02T05:53:43.987Z,-0.30
2023-03-02T05:54:45.683Z,-0.30
2023-03-02T05:55:47.371Z,-0.30
2023-03-02T05:56:50.285Z,-0.20
2023-03-02T05:57:53.281Z,-0.10
2023-03-02T05:58:54.925Z,0.00
2023-03-02T05:59:56.484Z,0.00
2023-03-02T06:00:58.021Z,0.00
2023-03-02T06:01:59.983Z,0.00
2023-03-02T06:03:02.084Z,0.00
2023-03-02T06:04:03.568Z,0.10
2023-03-02T06:05:07.391Z,0.00
2023-03-02T06:06:09.063Z,0.00
2023-03-02T06:07:11.579Z,0.00
2023-03-02T06:08:12.983Z,0.00
2023-03-02T06:09:14.989Z,0.00
2023-03-02T06:10:17.313Z,0.00
2023-03-02T06:11:19.111Z,0.00
2023-03-02T06:12:20.548Z,0.00
2023-03-02T06:13:21.983Z,0.10
2023-03-02T06:14:23.409Z,0.10
2023-03-02T06:15:29.683Z,0.20
2023-03-02T06:16:32.483Z,0.20
2023-03-02T06:17:34.411Z,0.20
2023-03-02T06:18:36.883Z,0.20
2023-03-02T06:19:38.420Z,0.20
2023-03-02T06:20:40.572Z,0.20
2023-03-02T06:21:42.503Z,0.20
2023-03-02T06:22:45.629Z,0.20
2023-03-02T06:23:47.094Z,0.20
2023-03-02T06:24:48.597Z,0.20
2023-03-02T06:25:50.136Z,0.20
2023-03-02T06:26:54.353Z,0.30
2023-03-02T06:27:55.965Z,0.30
2023-03-02T06:28:57.696Z,0.30
2023-03-02T06:29:59.485Z,0.30
2023-03-02T06:31:01.009Z,0.30
2023-03-02T06:32:02.825Z,0.30
2023-03-02T06:33:04.359Z,0.30
2023-03-02T06:34:07.066Z,0.40
2023-03-02T06:35:09.239Z,0.50
2023-03-02T06:36:12.617Z,0.50
2023-03-02T06:37:14.671Z,0.50
2023-03-02T06:38:16.629Z,0.50
2023-03-02T06:39:18.093Z,0.50
2023-03-02T06:40:21.601Z,0.60
2023-03-02T06:41:23.261Z,0.60
2023-03-02T06:42:29.102Z,0.60
2023-03-02T06:43:31.055Z,0.70
2023-03-02T06:44:32.692Z,0.70
2023-03-02T06:45:34.325Z,0.70
2023-03-02T06:46:36.705Z,0.80
2023-03-02T06:47:38.588Z,0.70
2023-03-02T06:48:40.040Z,0.70
2023-03-02T06:49:41.528Z,0.80
2023-03-02T06:50:42.949Z,0.70
2023-03-02T06:51:44.446Z,0.80
2023-03-02T06:52:45.864Z,0.80
2023-03-02T06:53:47.346Z,0.80
2023-03-02T06:54:48.783Z,0.80
2023-03-02T06:55:51.481Z,0.80
2023-03-02T06:56:52.971Z,0.90
2023-03-02T06:57:54.744Z,0.90
2023-03-02T06:58:56.182Z,0.90
2023-03-02T06:59:57.621Z,0.90
2023-03-02T07:00:59.194Z,1.00
2023-03-02T07:02:00.838Z,1.00
2023-03-02T07:03:02.853Z,1.00
2023-03-02T07:04:04.554Z,1.10
2023-03-02T07:05:07.245Z,1.20
2023-03-02T07:06:10.081Z,1.10
2023-03-02T07:07:11.837Z,1.10
2023-03-02T07:08:13.326Z,1.20
2023-03-02T07:09:15.166Z,1.20
2023-03-02T07:10:16.887Z,1.20
2023-03-02T07:11:18.379Z,1.10
2023-03-02T07:12:19.848Z,1.20
2023-03-02T07:13:21.376Z,1.10
2023-03-02T07:14:22.951Z,1.20
2023-03-02T07:15:24.787Z,1.30
2023-03-02T07:16:26.448Z,1.40
2023-03-02T07:17:28.016Z,1.30
2023-03-02T07:18:29.450Z,1.30
2023-03-02T07:19:30.829Z,1.30
2023-03-02T07:20:32.317Z,1.40
2023-03-02T07:21:34.084Z,1.30
2023-03-02T07:22:36.034Z,1.40
2023-03-02T07:23:37.520Z,1.30
2023-03-02T07:24:39.029Z,1.30
2023-03-02T07:25:41.302Z,1.20
2023-03-02T07:26:43.069Z,1.20
2023-03-02T07:27:45.205Z,1.10
2023-03-02T07:28:46.681Z,1.20
2023-03-02T07:29:48.344Z,1.20
2023-03-02T07:30:50.793Z,1.20
2023-03-02T07:31:57.016Z,1.20
2023-03-02T07:32:58.814Z,1.20
2023-03-02T07:34:00.504Z,1.20
2023-03-02T07:35:02.081Z,1.20
2023-03-02T07:36:04.958Z,1.30
2023-03-02T07:37:06.582Z,1.30
2023-03-02T07:38:08.181Z,1.40
2023-03-02T07:39:09.713Z,1.40
2023-03-02T07:40:12.475Z,1.40
2023-03-02T07:41:15.496Z,1.50
2023-03-02T07:42:17.494Z,1.60
2023-03-02T07:43:25.488Z,1.60
2023-03-02T07:44:27.561Z,1.60
2023-03-02T07:45:29.078Z,1.70
2023-03-02T07:46:30.641Z,1.60
2023-03-02T07:47:32.619Z,1.50
2023-03-02T07:48:34.846Z,1.40
2023-03-02T07:49:36.515Z,1.40
2023-03-02T07:50:38.104Z,1.40
2023-03-02T07:51:39.810Z,1.40
2023-03-02T07:52:41.346Z,1.40
2023-03-02T07:53:42.777Z,1.50
2023-03-02T07:54:44.415Z,1.60
2023-03-02T07:55:45.924Z,1.60
2023-03-02T07:56:47.571Z,1.70
2023-03-02T07:57:49.465Z,1.70
2023-03-02T07:58:50.933Z,1.70
2023-03-02T07:59:52.645Z,1.80
2023-03-02T08:00:54.357Z,1.70
2023-03-02T08:01:56.935Z,1.70
2023-03-02T08:02:58.841Z,1.80
2023-03-02T08:04:00.475Z,1.80
2023-03-02T08:05:02.059Z,1.70
2023-03-02T08:06:11.391Z,1.90
2023-03-02T08:07:12.792Z,1.80
2023-03-02T08:08:14.483Z,1.80
2023-03-02T08:09:17.081Z,1.80
2023-03-02T08:10:18.701Z,1.80
2023-03-02T08:11:20.231Z,1.70
2023-03-02T08:12:21.731Z,1.70
2023-03-02T08:13:23.467Z,1.70
2023-03-02T08:14:25.045Z,1.80
2023-03-02T08:15:26.863Z,1.80
2023-03-02T08:16:29.271Z,1.70
2023-03-02T08:17:30.762Z,1.70
2023-03-02T08:18:33.277Z,1.70
2023-03-02T08:19:35.072Z,1.70
2023-03-02T08:20:38.377Z,1.70
2023-03-02T08:21:40.660Z,1.70
2023-03-02T08:22:42.056Z,1.70
2023-03-02T08:23:44.215Z,1.80
2023-03-02T08:24:45.786Z,1.70
2023-03-02T08:25:47.215Z,1.70
2023-03-02T08:26:48.635Z,1.90
2023-03-02T08:27:50.016Z,1.90
2023-03-02T08:28:51.792Z,2.00
2023-03-02T08:29:54.272Z,2.10
2023-03-02T08:31:00.470Z,2.10
2023-03-02T08:32:02.499Z,2.10
2023-03-02T08:33:06.976Z,2.10
2023-03-02T08:34:08.989Z,2.10
2023-03-02T08:35:10.625Z,2.10
2023-03-02T08:36:16.405Z,2.10
2023-03-02T08:37:19.308Z,2.10
2023-03-02T08:38:20.771Z,2.10
2023-03-02T08:39:23.634Z,2.00
2023-03-02T08:40:25.670Z,2.00
2023-03-02T08:41:27.167Z,2.10
2023-03-02T08:42:28.539Z,2.10
2023-03-02T08:43:30.332Z,2.00
2023-03-02T08:44:31.841Z,2.00
2023-03-02T08:45:34.856Z,2.00
2023-03-02T08:46:36.338Z,2.00
2023-03-02T08:47:38.149Z,1.90
2023-03-02T08:48:39.909Z,1.90
2023-03-02T08:49:41.488Z,1.90
2023-03-02T08:50:42.869Z,1.90
2023-03-02T08:51:45.794Z,2.00
2023-03-02T08:52:47.957Z,2.00
2023-03-02T08:53:51.823Z,2.00
2023-03-02T08:54:53.382Z,2.00
2023-03-02T08:55:55.063Z,2.00
2023-03-02T08:56:56.747Z,2.00
2023-03-02T08:57:58.152Z,2.00
2023-03-02T08:59:02.363Z,2.00
2023-03-02T09:00:08.621Z,2.00
2023-03-02T09:01:17.768Z,2.00
2023-03-02T09:02:19.401Z,2.00
2023-03-02T09:03:21.048Z,2.10
2023-03-02T09:04:22.795Z,2.00
2023-03-02T09:05:24.625Z,2.00
2023-03-02T09:06:27.281Z,2.00
2023-03-02T09:07:30.586Z,2.00
2023-03-02T09:08:32.284Z,1.90
2023-03-02T09:09:33.686Z,1.90
2023-03-02T09:10:36.192Z,2.00
2023-03-02T09:11:37.988Z,1.90
2023-03-02T09:12:39.430Z,1.90
2023-03-02T09:13:41.097Z,1.90
2023-03-02T09:14:42.535Z,1.90
2023-03-02T09:15:45.251Z,1.90
2023-03-02T09:16:47.377Z,2.00
2023-03-02T09:17:49.213Z,2.00
2023-03-02T09:18:50.835Z,2.10
2023-03-02T09:19:52.269Z,2.20
2023-03-02T09:20:54.082Z,2.20
2023-03-02T09:21:55.514Z,2.20
2023-03-02T09:22:57.231Z,2.20
2023-03-02T09:23:59.303Z,2.20
2023-03-02T09:25:00.682Z,2.20
2023-03-02T09:26:03.293Z,2.30
2023-03-02T09:27:04.859Z,2.30
2023-03-02T09:28:06.373Z,2.50
2023-03-02T09:29:08.150Z,2.40
2023-03-02T09:30:10.232Z,2.50
2023-03-02T09:31:12.035Z,2.60
2023-03-02T09:32:15.871Z,2.70
2023-03-02T09:33:17.920Z,2.70
2023-03-02T09:34:19.877Z,2.80
2023-03-02T09:35:21.313Z,2.90
2023-03-02T09:36:25.685Z,3.00
2023-03-02T09:37:30.132Z,3.00
2023-03-02T09:38:31.655Z,2.90
2023-03-02T09:39:33.249Z,2.90
2023-03-02T09:40:42.867Z,2.90
2023-03-02T09:42:12.383Z,3.00
2023-03-02T09:43:50.068Z,3.10
2023-03-02T09:45:13.468Z,3.20
2023-03-02T09:46:26.824Z,3.30
2023-03-02T09:47:43.692Z,3.40
2023-03-02T09:48:54.136Z,3.40
2023-03-02T09:50:23.071Z,3.30
2023-03-02T09:51:46.861Z,3.20
2023-03-02T09:53:05.815Z,3.10
2023-03-02T09:54:13.096Z,3.00
2023-03-02T09:55:25.450Z,2.90
2023-03-02T09:56:27.253Z,2.90
2023-03-02T09:57:34.953Z,2.80
2023-03-02T09:58:39.527Z,2.80
2023-03-02T09:59:48.520Z,2.70
2023-03-02T10:00:51.743Z,2.80
2023-03-02T10:02:01.377Z,2.80
2023-03-02T10:03:18.671Z,2.80
2023-03-02T10:04:27.734Z,2.90
2023-03-02T10:05:29.223Z,2.90
2023-03-02T10:06:31.129Z,2.90
2023-03-02T10:07:38.183Z,3.00
2023-03-02T10:08:41.018Z,3.00
2023-03-02T10:09:43.334Z,3.00
2023-03-02T10:10:46.902Z,3.10
2023-03-02T10:12:30.140Z,3.10
2023-03-02T10:13:47.871Z,3.20
2023-03-02T10:15:00.273Z,3.10
2023-03-02T10:16:12.812Z,3.00
2023-03-02T10:17:16.969Z,3.00
2023-03-02T10:18:21.635Z,3.00
2023-03-02T10:19:41.669Z,3.00
2023-03-02T10:20:52.300Z,2.90
2023-03-02T10:22:03.256Z,3.00
2023-03-02T10:23:27.365Z,3.10
2023-03-02T10:24:39.523Z,3.20
2023-03-02T10:26:08.939Z,3.20
2023-03-02T10:27:18.251Z,3.20
2023-03-02T10:28:22.776Z,3.20
2023-03-02T10:29:24.261Z,3.40
2023-03-02T10:30:38.435Z,3.50
2023-03-02T10:31:41.493Z,3.40
2023-03-02T10:32:46.537Z,3.40
2023-03-02T10:33:49.305Z,3.40
2023-03-02T10:34:53.124Z,3.50
2023-03-02T10:35:54.665Z,3.70
2023-03-02T10:36:57.310Z,3.70
2023-03-02T10:38:07.294Z,3.70
2023-03-02T10:39:16.948Z,3.80
2023-03-02T10:40:28.097Z,3.60
2023-03-02T10:41:41.461Z,3.60
2023-03-02T10:42:43.412Z,3.60
2023-03-02T10:43:48.943Z,3.80
2023-03-02T10:44:57.146Z,3.90
2023-03-02T10:46:07.861Z,3.90
2023-03-02T10:47:23.537Z,3.80
2023-03-02T10:48:25.064Z,4.00
2023-03-02T10:49:26.464Z,4.10
2023-03-02T10:50:30.570Z,4.20
2023-03-02T10:51:37.468Z,4.20
2023-03-02T10:52:59.498Z,4.10
2023-03-02T10:54:11.848Z,4.10
2023-03-02T10:55:15.084Z,4.00
2023-03-02T10:56:22.454Z,4.00
2023-03-02T10:57:55.817Z,4.10
2023-03-02T10:59:03.123Z,4.00
2023-03-02T11:00:13.227Z,3.90
2023-03-02T11:01:19.205Z,4.00
2023-03-02T11:02:25.140Z,4.20
2023-03-02T11:03:27.000Z,4.30
2023-03-02T11:04:30.012Z,4.40
2023-03-02T11:05:39.751Z,4.50
2023-03-02T11:06:41.246Z,4.40
2023-03-02T11:07:56.042Z,4.50
2023-03-02T11:09:07.837Z,4.60
2023-03-02T11:10:21.759Z,4.50
2023-03-02T11:11:24.867Z,4.50
2023-03-02T11:12:26.651Z,4.40
2023-03-02T11:13:33.815Z,4.40
2023-03-02T11:14:35.249Z,4.50
2023-03-02T11:15:44.715Z,4.60
2023-03-02T11:16:46.371Z,4.60
2023-03-02T11:17:54.684Z,4.60
2023-03-02T11:19:07.951Z,4.60
2023-03-02T11:20:17.647Z,4.70
2023-03-02T11:21:24.461Z,4.70
2023-03-02T11:22:59.256Z,4.80
2023-03-02T11:24:03.814Z,4.80
2023-03-02T11:25:18.124Z,5.00
2023-03-02T11:26:27.885Z,5.10
2023-03-02T11:27:32.444Z,5.20
2023-03-02T11:28:54.040Z,5.30
2023-03-02T11:30:09.260Z,5.50
2023-03-02T11:31:20.655Z,5.60
2023-03-02T11:32:55.483Z,5.70
2023-03-02T11:34:16.740Z,5.70
2023-03-02T11:35:21.550Z,5.40
2023-03-02T11:36:37.477Z,5.40
2023-03-02T11:37:38.826Z,5.40
2023-03-02T11:38:48.949Z,5.60
2023-03-02T11:39:55.413Z,5.60
2023-03-02T11:40:59.638Z,5.40
2023-03-02T11:42:01.291Z,5.30
2023-03-02T11:43:04.928Z,5.30
2023-03-02T11:44:17.450Z,5.20
2023-03-02T11:45:28.785Z,5.20
2023-03-02T11:46:32.458Z,5.10
2023-03-02T11:47:35.773Z,5.20
2023-03-02T11:48:41.949Z,5.10
2023-03-02T11:49:52.652Z,5.20
2023-03-02T11:51:02.975Z,5.30
2023-03-02T11:52:06.409Z,5.50
2023-03-02T11:53:13.992Z,5.50
2023-03-02T11:54:47.139Z,5.40
2023-03-02T11:55:50.586Z,5.50
2023-03-02T11:56:52.358Z,5.70
2023-03-02T11:59:05.874Z,5.60
2023-03-02T12:00:15.540Z,5.60
2023-03-02T12:01:22.251Z,5.40
2023-03-02T12:02:25.536Z,5.30
2023-03-02T12:03:32.848Z,5.20
2023-03-02T12:04:37.632Z,5.10
2023-03-02T12:05:40.238Z,5.20
2023-03-02T12:06:45.438Z,5.20
2023-03-02T12:08:00.493Z,5.20
2023-03-02T12:09:25.485Z,5.30
2023-03-02T12:10:32.165Z,5.40
2023-03-02T12:11:40.409Z,5.40
2023-03-02T12:12:48.127Z,5.30
2023-03-02T12:13:49.723Z,5.20
2023-03-02T12:14:52.494Z,5.10
2023-03-02T12:15:56.289Z,5.00
2023-03-02T12:17:23.015Z,5.00
2023-03-02T12:18:24.843Z,5.00
2023-03-02T12:19:29.749Z,5.10
2023-03-02T12:20:31.126Z,5.10
2023-03-02T12:21:40.801Z,5.10
2023-03-02T12:22:42.197Z,5.10
2023-03-02T12:23:49.858Z,5.30
2023-03-02T12:25:01.200Z,5.40
2023-03-02T12:26:08.473Z,5.40
2023-03-02T12:27:16.744Z,5.50
2023-03-02T12:28:31.917Z,5.50
2023-03-02T12:29:46.401Z,5.50
2023-03-02T12:30:57.063Z,5.50
2023-03-02T12:31:58.618Z,5.50
2023-03-02T12:33:12.161Z,5.50
2023-03-02T12:34:37.637Z,5.40
2023-03-02T12:35:39.618Z,5.30
2023-03-02T12:36:44.050Z,5.40
2023-03-02T12:37:57.128Z,5.40
2023-03-02T12:39:23.145Z,5.30
2023-03-02T12:41:04.659Z,5.30
2023-03-02T12:42:33.989Z,5.40
2023-03-02T12:43:37.860Z,5.40
2023-03-02T12:45:13.588Z,5.20
2023-03-02T12:46:34.554Z,5.30
2023-03-02T12:47:38.365Z,5.20
2023-03-02T12:49:00.297Z,5.30
2023-03-02T12:50:07.690Z,5.30
2023-03-02T12:51:19.765Z,5.30
2023-03-02T12:52:26.393Z,5.30
2023-03-02T12:53:28.932Z,5.40
2023-03-02T12:54:33.522Z,5.30
2023-03-02T12:55:38.347Z,5.50
2023-03-02T12:56:39.876Z,5.50
2023-03-02T12:57:52.381Z,5.60
2023-03-02T12:58:54.597Z,5.60
2023-03-02T12:59:58.945Z,5.50
2023-03-02T13:01:02.444Z,5.60
2023-03-02T13:02:24.247Z,5.70
2023-03-02T13:03:28.142Z,5.70
2023-03-02T13:04:29.591Z,5.80
2023-03-02T13:05:33.713Z,5.90
2023-03-02T13:06:38.962Z,5.90
2023-03-02T13:07:44.066Z,6.00
2023-03-02T13:08:48.123Z,6.00
2023-03-02T13:09:56.772Z,6.00
2023-03-02T13:11:02.040Z,6.00
2023-03-02T13:12:03.617Z,6.10
2023-03-02T13:13:18.621Z,6.20
2023-03-02T13:14:27.629Z,6.00
2023-03-02T13:15:29.476Z,6.00
2023-03-02T13:16:34.133Z,5.90
2023-03-02T13:17:35.879Z,5.90
2023-03-02T13:18:39.631Z,5.90
2023-03-02T13:19:41.253Z,5.90
2023-03-02T13:20:42.846Z,5.90
2023-03-02T13:21:44.546Z,5.80
2023-03-02T13:22:46.362Z,5.80
2023-03-02T13:23:51.712Z,5.90
2023-03-02T13:25:02.295Z,5.80
2023-03-02T13:26:05.920Z,5.90
2023-03-02T13:27:15.360Z,5.80
2023-03-02T13:28:30.211Z,5.80
2023-03-02T13:29:32.409Z,5.90
2023-03-02T13:30:37.231Z,5.90
2023-03-02T13:31:39.060Z,5.90
2023-03-02T13:32:43.323Z,5.80
2023-03-02T13:33:46.829Z,5.80
2023-03-02T13:34:53.830Z,5.80
2023-03-02T13:35:56.206Z,6.00
2023-03-02T13:36:57.779Z,5.90
2023-03-02T13:38:01.530Z,5.90
2023-03-02T13:39:07.858Z,6.00
2023-03-02T13:40:27.453Z,6.00
2023-03-02T13:41:31.583Z,6.20
2023-03-02T13:42:39.200Z,5.90
2023-03-02T13:43:40.776Z,5.80
2023-03-02T13:44:43.073Z,5.90
2023-03-02T13:46:15.012Z,5.90
2023-03-02T13:47:22.870Z,5.80
2023-03-02T13:48:24.962Z,5.90
2023-03-02T13:49:29.493Z,6.10
2023-03-02T13:50:32.229Z,6.10
2023-03-02T13:51:43.651Z,6.10
2023-03-02T13:52:45.588Z,6.10
2023-03-02T13:53:54.926Z,6.20
2023-03-02T13:54:56.403Z,6.10
2023-03-02T13:56:00.335Z,6.00
2023-03-02T13:57:04.232Z,6.10
2023-03-02T13:58:14.460Z,6.10
2023-03-02T13:59:18.438Z,6.10
2023-03-02T14:00:23.131Z,5.90
2023-03-02T14:01:24.667Z,5.90
2023-03-02T14:02:30.062Z,6.00
2023-03-02T14:03:31.590Z,6.00
2023-03-02T14:04:33.088Z,6.10
2023-03-02T14:05:34.628Z,6.20
2023-03-02T14:06:36.024Z,6.20
2023-03-02T14:07:37.457Z,6.30
2023-03-02T14:08:39.006Z,6.30
2023-03-02T14:09:40.451Z,6.20
2023-03-02T14:10:42.721Z,6.10
2023-03-02T14:11:55.727Z,6.10
2023-03-02T14:13:09.176Z,6.10
2023-03-02T14:14:21.021Z,6.20
2023-03-02T14:15:22.577Z,6.20
2023-03-02T14:16:24.362Z,6.20
2023-03-02T14:17:26.300Z,6.30
2023-03-02T14:18:40.138Z,6.30